This is the latest recevied weather packets stored in our database for station/object K2ATL. If no packets are shown the sender has not sent any weather packets the latest 10 day(s).
| Time | Temp. | Humidity | Pressure | Rain* | Wind** | Luminosity | Snow |
|---|---|---|---|---|---|---|---|
| 1777928802 | 22.78° C | 40% | 1099.2 hPa | 0 mm | - | 368 W/m² | - |
| 1777928498 | 21.67° C | 41% | 1099.5 hPa | 0 mm | - | 535 W/m² | - |
| 1777928196 | 21.11° C | 44% | 1099.6 hPa | 0 mm | - | 529 W/m² | - |
| 1777927893 | 21.67° C | 41% | 1099.6 hPa | 0 mm | - | 468 W/m² | - |
| 1777927591 | 22.78° C | 40% | 1099.6 hPa | 0 mm | - | 359 W/m² | - |
| 1777927290 | 22.78° C | 39% | 1099.7 hPa | 0 mm | - | 421 W/m² | - |
| 1777926988 | 22.78° C | 41% | 1099.6 hPa | 0 mm | - | 530 W/m² | - |
| 1777926685 | 21.67° C | 42% | 1099.9 hPa | 0 mm | - | 557 W/m² | - |
| 1777926385 | 22.22° C | 40% | 1099.9 hPa | 0 mm | - | 363 W/m² | - |
| 1777926083 | 20.56° C | 41% | 1099.9 hPa | 0 mm | - | 483 W/m² | - |
| 1777925779 | 22.22° C | 40% | 1100 hPa | 0 mm | - | 358 W/m² | - |
| 1777925477 | 23.33° C | 39% | 1099.9 hPa | 0 mm | - | 400 W/m² | - |
| 1777925174 | 23.33° C | 39% | 1099.9 hPa | 0 mm | - | 697 W/m² | - |
| 1777924871 | 24.44° C | 38% | 1100 hPa | 0 mm | - | 518 W/m² | - |
| 1777924566 | 24.44° C | 36% | 1100.2 hPa | 0 mm | - | 660 W/m² | - |
| 1777924257 | 24.44° C | 37% | 1100.3 hPa | 0 mm | - | 821 W/m² | - |
| 1777923954 | 22.78° C | 38% | 1100.1 hPa | 0 mm | - | 825 W/m² | - |
| 1777923649 | 23.33° C | 40% | 1100.3 hPa | 0 mm | - | 648 W/m² | - |
| 1777923346 | 22.22° C | 41% | 1100.4 hPa | 0 mm | - | 821 W/m² | - |
| 1777923045 | 22.78° C | 39% | 1100.5 hPa | 0 mm | - | 756 W/m² | - |
| 1777922743 | 21.11° C | 42% | 1100.7 hPa | 0 mm | - | 723 W/m² | - |
| 1777922441 | 20° C | 44% | 1100.6 hPa | 0 mm | - | 474 W/m² | - |
| 1777922138 | 22.22° C | 41% | 1100.6 hPa | 0 mm | - | 568 W/m² | - |
| 1777921834 | 22.78° C | 39% | 1100.7 hPa | 0 mm | - | 542 W/m² | - |
| 1777921531 | 22.22° C | 40% | 1100.6 hPa | 0 mm | - | 828 W/m² | - |
* Rain latest hour (hover to see other rain measurements)
** Current wind speed in m/s (hover to see current wind gust speed)